createdAt,value
2022-08-22T00:00:09.856Z,2.42
2022-08-22T00:02:45.270Z,1.73
2022-08-22T00:02:48.332Z,2.03
2022-08-22T00:02:49.632Z,2.05
2022-08-22T00:02:55.327Z,2.25
2022-08-22T00:02:55.898Z,2.00
2022-08-22T00:02:59.712Z,1.65
2022-08-22T00:03:03.716Z,1.75
2022-08-22T00:03:16.175Z,2.20
2022-08-22T00:05:57.746Z,2.13
2022-08-22T00:08:45.627Z,2.10
2022-08-22T00:11:35.174Z,1.90
2022-08-22T00:16:55.861Z,1.85
2022-08-22T00:19:31.421Z,1.75
2022-08-22T00:22:42.687Z,2.63
2022-08-22T00:25:25.681Z,2.03
2022-08-22T00:28:30.205Z,2.00
2022-08-22T00:31:09.355Z,1.60
2022-08-22T00:33:51.293Z,2.15
2022-08-22T00:36:39.914Z,2.35
2022-08-22T00:39:09.803Z,1.83
2022-08-22T00:41:41.530Z,2.30
2022-08-22T00:44:27.598Z,1.58
2022-08-22T00:47:14.418Z,2.08
2022-08-22T00:50:15.171Z,1.98
2022-08-22T00:52:44.964Z,2.17
2022-08-22T00:55:35.219Z,1.60
2022-08-22T00:58:40.225Z,2.00
2022-08-22T01:01:11.557Z,2.20
2022-08-22T01:03:46.669Z,2.28
2022-08-22T01:06:27.951Z,1.63
2022-08-22T01:09:13.315Z,1.75
2022-08-22T01:12:20.523Z,1.90
2022-08-22T01:14:55.948Z,1.45
2022-08-22T01:17:44.364Z,1.92
2022-08-22T01:20:32.944Z,1.73
2022-08-22T01:23:51.330Z,2.40
2022-08-22T01:26:45.192Z,2.10
2022-08-22T01:29:54.100Z,2.00
2022-08-22T01:32:58.535Z,2.05
2022-08-22T01:35:29.485Z,1.60
2022-08-22T01:38:36.928Z,1.80
2022-08-22T01:41:21.178Z,1.77
2022-08-22T01:44:11.770Z,2.13
2022-08-22T01:46:42.148Z,2.50
2022-08-22T01:49:21.361Z,2.22
2022-08-22T01:51:54.770Z,1.63
2022-08-22T01:54:45.425Z,2.00
2022-08-22T01:57:13.338Z,2.33
2022-08-22T01:59:46.882Z,2.20
2022-08-22T02:02:22.834Z,1.70
2022-08-22T02:05:20.117Z,1.85
2022-08-22T02:08:01.609Z,1.80
2022-08-22T02:10:56.719Z,1.88
2022-08-22T02:13:32.431Z,2.17
2022-08-22T02:16:17.824Z,1.90
2022-08-22T02:19:03.608Z,1.88
2022-08-22T02:21:51.521Z,2.10
2022-08-22T02:24:33.351Z,2.15
2022-08-22T02:27:24.462Z,1.98
2022-08-22T02:30:14.914Z,1.73
2022-08-22T02:32:41.605Z,1.73
2022-08-22T02:35:26.117Z,2.00
2022-08-22T02:38:08.156Z,2.00
2022-08-22T02:41:01.973Z,1.80
2022-08-22T02:43:42.296Z,2.03
2022-08-22T02:46:22.153Z,1.88
2022-08-22T02:49:19.145Z,2.15
2022-08-22T02:52:11.425Z,1.95
2022-08-22T02:55:03.645Z,1.83
2022-08-22T02:57:43.714Z,1.98
2022-08-22T03:00:32.026Z,1.98
2022-08-22T03:02:59.714Z,1.98
2022-08-22T03:05:38.572Z,1.92
2022-08-22T03:08:13.456Z,2.00
2022-08-22T03:10:47.458Z,2.65
2022-08-22T03:13:24.119Z,2.20
2022-08-22T03:15:57.779Z,1.98
2022-08-22T03:18:44.677Z,2.50
2022-08-22T03:21:45.456Z,2.00
2022-08-22T03:24:20.416Z,2.00
2022-08-22T03:27:10.367Z,2.05
2022-08-22T03:29:44.997Z,2.38
2022-08-22T03:32:23.876Z,2.00
2022-08-22T03:35:05.408Z,1.80
2022-08-22T03:37:38.000Z,2.47
2022-08-22T03:40:04.808Z,1.83
2022-08-22T03:43:00.178Z,1.70
2022-08-22T03:45:59.834Z,2.25
2022-08-22T03:51:30.335Z,2.22
2022-08-22T03:53:57.009Z,2.53
2022-08-22T03:56:32.299Z,2.08
2022-08-22T03:59:26.728Z,2.05
2022-08-22T04:02:24.790Z,2.17
2022-08-22T04:05:23.585Z,1.70
2022-08-22T04:08:00.658Z,2.40
2022-08-22T04:10:33.563Z,2.22
2022-08-22T04:13:24.653Z,2.42
2022-08-22T04:16:05.892Z,2.35
2022-08-22T04:18:53.378Z,2.33
2022-08-22T04:21:39.360Z,2.20
2022-08-22T04:24:37.256Z,2.35
2022-08-22T04:27:32.266Z,2.22
2022-08-22T04:30:06.925Z,2.22
2022-08-22T04:32:51.378Z,1.95
2022-08-22T04:35:27.295Z,1.83
2022-08-22T04:38:00.659Z,2.15
2022-08-22T04:40:52.153Z,2.22
2022-08-22T04:43:24.611Z,2.28
2022-08-22T04:46:37.131Z,1.85
2022-08-22T04:49:19.083Z,2.10
2022-08-22T04:51:55.535Z,2.40
2022-08-22T04:54:52.211Z,2.08
2022-08-22T04:57:48.857Z,2.22
2022-08-22T05:00:20.416Z,2.13
2022-08-22T05:02:56.072Z,2.00
2022-08-22T05:05:35.419Z,1.98
2022-08-22T05:08:04.416Z,2.30
2022-08-22T05:10:38.147Z,2.37
2022-08-22T05:13:10.098Z,2.30
2022-08-22T05:15:45.966Z,2.40
2022-08-22T05:18:29.846Z,2.25
2022-08-22T05:21:05.095Z,2.38
2022-08-22T05:24:08.508Z,2.28
2022-08-22T05:26:43.237Z,2.10
2022-08-22T05:29:12.217Z,2.22
2022-08-22T05:31:53.469Z,2.60
2022-08-22T05:34:25.930Z,2.22
2022-08-22T05:37:02.308Z,2.20
2022-08-22T05:39:30.055Z,2.75
2022-08-22T05:42:00.273Z,2.40
2022-08-22T05:44:38.069Z,2.13
2022-08-22T05:47:22.639Z,2.17
2022-08-22T05:50:03.696Z,2.63
2022-08-22T05:52:39.879Z,2.20
2022-08-22T05:55:33.843Z,2.30
2022-08-22T05:58:04.056Z,2.28
2022-08-22T06:00:38.749Z,2.20
2022-08-22T06:03:16.957Z,2.17
2022-08-22T06:05:54.484Z,2.45
2022-08-22T06:08:44.015Z,2.17
2022-08-22T06:11:20.497Z,2.30
2022-08-22T06:14:02.005Z,2.90
2022-08-22T06:19:00.934Z,3.20
2022-08-22T06:21:39.393Z,2.17
2022-08-22T06:24:10.393Z,2.70
2022-08-22T06:26:46.071Z,2.70
2022-08-22T06:29:21.824Z,2.10
2022-08-22T06:31:49.680Z,2.50
2022-08-22T06:34:37.908Z,2.35
2022-08-22T06:37:10.550Z,2.70
2022-08-22T06:39:43.959Z,2.75
2022-08-22T06:42:16.694Z,2.70
2022-08-22T06:44:47.177Z,2.70
2022-08-22T06:47:23.422Z,3.10
2022-08-22T06:49:56.880Z,3.00
2022-08-22T06:52:27.160Z,3.08
2022-08-22T06:55:05.955Z,3.35
2022-08-22T06:57:48.702Z,3.37
2022-08-22T07:00:17.395Z,2.63
2022-08-22T07:02:48.527Z,2.97
2022-08-22T07:05:25.904Z,2.65
2022-08-22T07:07:53.085Z,3.13
2022-08-22T07:10:24.248Z,2.83
2022-08-22T07:12:53.994Z,3.30
2022-08-22T07:15:37.234Z,3.15
2022-08-22T07:18:31.784Z,3.78
2022-08-22T07:21:08.097Z,2.50
2022-08-22T07:23:48.096Z,3.33
2022-08-22T07:26:36.748Z,3.20
2022-08-22T07:29:29.922Z,2.72
2022-08-22T07:32:07.279Z,2.72
2022-08-22T07:34:51.930Z,3.10
2022-08-22T07:37:30.972Z,3.17
2022-08-22T07:39:58.046Z,2.83
2022-08-22T07:42:48.341Z,2.70
2022-08-22T07:45:29.036Z,2.65
2022-08-22T07:48:10.504Z,2.80
2022-08-22T07:50:48.617Z,3.42
2022-08-22T07:53:44.891Z,2.60
2022-08-22T07:56:22.335Z,2.58
2022-08-22T07:58:55.520Z,2.92
2022-08-22T08:01:23.506Z,2.45
2022-08-22T08:04:02.976Z,2.42
2022-08-22T08:06:32.002Z,2.72
2022-08-22T08:08:59.113Z,2.60
2022-08-22T08:11:30.875Z,2.97
2022-08-22T08:14:05.263Z,2.63
2022-08-22T08:16:42.724Z,3.28
2022-08-22T08:19:12.000Z,2.67
2022-08-22T08:21:58.879Z,2.30
2022-08-22T08:24:43.380Z,2.97
2022-08-22T08:27:36.743Z,2.80
2022-08-22T08:30:15.654Z,2.47
2022-08-22T08:32:47.516Z,2.42
2022-08-22T08:35:28.069Z,2.33
2022-08-22T08:38:02.826Z,2.38
2022-08-22T08:40:32.773Z,1.88
2022-08-22T08:43:27.491Z,2.55
2022-08-22T08:46:14.366Z,2.28
2022-08-22T08:48:55.161Z,2.28
2022-08-22T08:51:40.710Z,1.98
2022-08-22T08:54:17.714Z,1.98
2022-08-22T08:57:07.289Z,2.58
2022-08-22T09:00:17.302Z,2.38
2022-08-22T09:02:44.239Z,2.33
2022-08-22T09:05:35.888Z,2.42
2022-08-22T09:09:11.248Z,2.15
2022-08-22T09:12:07.292Z,2.25
2022-08-22T09:14:53.939Z,2.83
2022-08-22T09:17:51.224Z,2.60
2022-08-22T09:20:24.546Z,2.22
2022-08-22T09:26:14.466Z,2.22
2022-08-22T09:28:54.141Z,2.00
2022-08-22T09:31:44.972Z,2.88
2022-08-22T09:34:34.422Z,2.15
2022-08-22T09:37:35.112Z,2.05
2022-08-22T09:40:06.263Z,2.75
2022-08-22T09:42:44.947Z,2.58
2022-08-22T09:45:35.050Z,2.30
2022-08-22T09:48:34.893Z,2.63
2022-08-22T09:51:31.615Z,2.05
2022-08-22T09:54:22.855Z,2.28
2022-08-22T09:57:10.667Z,2.25
2022-08-22T09:59:59.534Z,2.30
2022-08-22T10:02:36.357Z,2.80
2022-08-22T10:05:11.354Z,2.42
2022-08-22T10:08:00.097Z,2.35
2022-08-22T10:10:38.788Z,2.10
2022-08-22T10:13:27.015Z,2.38
2022-08-22T10:16:13.335Z,2.45
2022-08-22T10:19:00.832Z,2.58
2022-08-22T10:21:31.085Z,2.05
2022-08-22T10:24:36.057Z,2.47
2022-08-22T10:27:22.765Z,2.28
2022-08-22T10:30:13.455Z,2.20
2022-08-22T10:33:12.338Z,2.20
2022-08-22T10:35:51.266Z,2.40
2022-08-22T10:38:46.895Z,2.30
2022-08-22T10:42:03.732Z,2.17
2022-08-22T10:44:43.931Z,1.95
2022-08-22T10:47:13.504Z,2.13
2022-08-22T10:49:52.633Z,2.20
2022-08-22T10:52:27.267Z,2.95
2022-08-22T10:55:12.206Z,2.22
2022-08-22T10:57:54.581Z,2.40
2022-08-22T11:00:33.319Z,2.20
2022-08-22T11:03:21.808Z,2.42
2022-08-22T11:05:52.599Z,1.98
2022-08-22T11:08:54.136Z,2.10
2022-08-22T11:11:47.564Z,2.58
2022-08-22T11:14:23.394Z,2.30
2022-08-22T11:16:55.986Z,2.22
2022-08-22T11:19:50.054Z,1.98
2022-08-22T11:22:55.601Z,2.45
2022-08-22T11:25:43.863Z,2.38
2022-08-22T11:28:19.676Z,2.10
2022-08-22T11:31:07.306Z,2.50
2022-08-22T11:33:54.400Z,2.33
2022-08-22T11:36:46.455Z,2.30
2022-08-22T11:39:34.625Z,2.28
2022-08-22T11:42:15.811Z,2.67
2022-08-22T11:44:54.075Z,1.88
2022-08-22T11:47:27.256Z,2.40
2022-08-22T11:50:53.876Z,2.33
2022-08-22T11:53:58.917Z,2.30
2022-08-22T11:56:41.893Z,2.42
2022-08-22T11:59:29.685Z,2.20
2022-08-22T12:02:04.730Z,2.40
2022-08-22T12:04:47.743Z,2.33
2022-08-22T12:07:26.635Z,2.30
2022-08-22T12:10:14.983Z,2.28
2022-08-22T12:12:53.940Z,2.17
2022-08-22T12:15:25.551Z,2.35
2022-08-22T12:18:21.134Z,2.35
2022-08-22T12:21:27.995Z,2.53
2022-08-22T12:24:20.765Z,2.40
2022-08-22T12:26:53.023Z,2.55
2022-08-22T12:29:44.904Z,2.13
2022-08-22T12:32:27.852Z,2.33
2022-08-22T12:35:19.436Z,2.30
2022-08-22T12:38:29.022Z,2.72
2022-08-22T12:41:28.028Z,2.58
2022-08-22T12:44:22.710Z,1.98
2022-08-22T12:47:36.051Z,2.50
2022-08-22T12:50:17.573Z,2.65
2022-08-22T12:53:10.949Z,2.53
2022-08-22T12:55:55.487Z,2.30
2022-08-22T12:58:53.631Z,2.30
2022-08-22T13:01:33.839Z,2.20
2022-08-22T13:04:08.352Z,2.72
2022-08-22T13:06:42.167Z,2.38
2022-08-22T13:09:28.537Z,2.03
2022-08-22T13:12:02.524Z,2.53
2022-08-22T13:14:36.842Z,2.33
2022-08-22T13:17:25.109Z,2.50
2022-08-22T13:19:59.047Z,2.40
2022-08-22T13:22:32.679Z,2.63
2022-08-22T13:25:16.023Z,2.50
2022-08-22T13:28:03.706Z,2.88
2022-08-22T13:30:41.185Z,2.35
2022-08-22T13:33:14.609Z,2.20
2022-08-22T13:36:14.015Z,2.70
2022-08-22T13:39:04.571Z,2.40
2022-08-22T13:41:47.623Z,2.30
2022-08-22T13:44:18.980Z,2.17
2022-08-22T13:47:13.099Z,2.92
2022-08-22T13:49:41.181Z,2.58
2022-08-22T13:52:29.288Z,2.72
2022-08-22T13:57:41.047Z,2.70
2022-08-22T14:00:12.086Z,2.90
2022-08-22T14:03:05.591Z,2.40
2022-08-22T14:05:37.891Z,2.65
2022-08-22T14:08:20.188Z,2.60
2022-08-22T14:11:09.736Z,2.70
2022-08-22T14:14:01.125Z,2.50
2022-08-22T14:16:55.189Z,2.35
2022-08-22T14:19:58.622Z,2.75
2022-08-22T14:22:31.834Z,2.53
2022-08-22T14:25:08.637Z,2.40
2022-08-22T14:28:03.667Z,2.67
2022-08-22T14:30:51.462Z,2.40
2022-08-22T14:33:49.840Z,3.15
2022-08-22T14:36:40.368Z,2.80
2022-08-22T14:39:27.837Z,2.67
2022-08-22T14:42:10.046Z,2.03
2022-08-22T14:44:44.365Z,2.60
2022-08-22T14:47:43.336Z,2.60
2022-08-22T14:50:38.530Z,2.60
2022-08-22T14:53:14.921Z,2.83
2022-08-22T14:55:42.437Z,2.80
2022-08-22T14:58:27.663Z,2.67
2022-08-22T15:01:00.249Z,2.33
2022-08-22T15:03:34.847Z,2.50
2022-08-22T15:06:29.084Z,2.30
2022-08-22T15:08:57.748Z,2.78
2022-08-22T15:11:28.399Z,2.28
2022-08-22T15:14:23.160Z,2.85
2022-08-22T15:17:03.467Z,2.60
2022-08-22T15:19:41.230Z,2.60
2022-08-22T15:22:28.036Z,3.13
2022-08-22T15:25:15.412Z,3.00
2022-08-22T15:27:52.379Z,3.00
2022-08-22T15:30:44.271Z,3.20
2022-08-22T15:33:23.358Z,3.42
2022-08-22T15:35:52.525Z,3.47
2022-08-22T15:38:27.637Z,3.83
2022-08-22T15:40:55.810Z,2.80
2022-08-22T15:43:28.888Z,3.60
2022-08-22T15:46:38.083Z,3.35
2022-08-22T15:49:21.957Z,3.33
2022-08-22T15:52:12.666Z,2.85
2022-08-22T15:54:51.587Z,3.05
2022-08-22T15:57:36.046Z,3.33
2022-08-22T16:00:28.204Z,2.92
2022-08-22T16:03:10.025Z,2.83
2022-08-22T16:05:53.151Z,3.20
2022-08-22T16:08:54.695Z,2.80
2022-08-22T16:11:34.737Z,3.25
2022-08-22T16:14:24.484Z,3.08
2022-08-22T16:16:53.342Z,3.33
2022-08-22T16:19:28.397Z,2.53
2022-08-22T16:21:55.143Z,2.92
2022-08-22T16:24:22.015Z,3.17
2022-08-22T16:26:51.781Z,2.97
2022-08-22T16:29:43.863Z,2.60
2022-08-22T16:32:13.107Z,3.00
2022-08-22T16:34:45.850Z,2.75
2022-08-22T16:37:14.450Z,2.88
2022-08-22T16:39:44.403Z,3.00
2022-08-22T16:42:23.637Z,2.30
2022-08-22T16:44:52.930Z,2.47
2022-08-22T16:47:25.247Z,2.63
2022-08-22T16:49:52.341Z,2.65
2022-08-22T16:52:25.953Z,2.50
2022-08-22T16:55:00.492Z,2.45
2022-08-22T16:57:30.619Z,2.30
2022-08-22T17:00:22.763Z,2.15
2022-08-22T17:03:09.118Z,2.28
2022-08-22T17:05:55.835Z,2.78
2022-08-22T17:08:41.789Z,3.30
2022-08-22T17:11:08.967Z,2.38
2022-08-22T17:13:48.294Z,2.42
2022-08-22T17:16:33.630Z,2.35
2022-08-22T17:19:32.181Z,2.50
2022-08-22T17:22:36.935Z,2.65
2022-08-22T17:25:04.079Z,2.40
2022-08-22T17:27:34.923Z,2.53
2022-08-22T17:30:10.463Z,2.70
2022-08-22T17:32:59.283Z,2.70
2022-08-22T17:35:45.895Z,2.47
2022-08-22T17:38:13.010Z,3.22
2022-08-22T17:40:43.160Z,2.47
2022-08-22T17:43:16.056Z,3.05
2022-08-22T17:46:05.420Z,2.55
2022-08-22T17:48:39.524Z,2.88
2022-08-22T17:51:25.309Z,2.30
2022-08-22T17:53:55.156Z,2.90
2022-08-22T17:56:22.301Z,2.25
2022-08-22T17:59:01.491Z,2.80
2022-08-22T18:04:00.596Z,2.20
2022-08-22T18:06:31.353Z,1.95
2022-08-22T18:09:18.803Z,2.47
2022-08-22T18:12:01.516Z,2.58
2022-08-22T18:14:36.576Z,2.00
2022-08-22T18:17:16.142Z,2.28
2022-08-22T18:19:47.439Z,2.13
2022-08-22T18:22:23.987Z,1.85
2022-08-22T18:25:00.037Z,2.13
2022-08-22T18:27:37.639Z,2.70
2022-08-22T18:30:13.491Z,2.90
2022-08-22T18:33:07.161Z,2.20
2022-08-22T18:35:50.003Z,2.38
2022-08-22T18:38:38.709Z,2.50
2022-08-22T18:41:26.693Z,2.20
2022-08-22T18:43:54.267Z,2.40
2022-08-22T18:46:41.571Z,2.60
2022-08-22T18:49:15.878Z,2.85
2022-08-22T18:51:43.806Z,2.53
2022-08-22T18:54:13.510Z,2.85
2022-08-22T18:57:01.250Z,2.50
2022-08-22T18:59:37.478Z,2.30
2022-08-22T19:02:40.136Z,2.08
2022-08-22T19:05:36.777Z,2.42
2022-08-22T19:08:41.247Z,1.88
2022-08-22T19:11:12.778Z,2.28
2022-08-22T19:13:42.275Z,1.90
2022-08-22T19:16:26.893Z,2.50
2022-08-22T19:18:58.555Z,2.33
2022-08-22T19:21:50.179Z,2.72
2022-08-22T19:24:19.619Z,2.25
2022-08-22T19:27:18.290Z,2.25
2022-08-22T19:29:44.954Z,2.17
2022-08-22T19:32:46.797Z,2.22
2022-08-22T19:35:21.763Z,2.28
2022-08-22T19:37:58.686Z,2.35
2022-08-22T19:40:49.467Z,2.40
2022-08-22T19:43:28.245Z,2.50
2022-08-22T19:45:55.955Z,2.33
2022-08-22T19:48:27.359Z,2.60
2022-08-22T19:51:10.981Z,2.30
2022-08-22T19:54:20.435Z,2.97
2022-08-22T19:57:06.179Z,2.60
2022-08-22T19:59:44.455Z,2.50
2022-08-22T20:02:22.981Z,2.35
2022-08-22T20:05:08.085Z,2.65
2022-08-22T20:07:53.116Z,2.42
2022-08-22T20:10:38.380Z,2.60
2022-08-22T20:13:31.185Z,2.47
2022-08-22T20:16:04.092Z,2.63
2022-08-22T20:19:05.907Z,2.53
2022-08-22T20:21:41.049Z,2.20
2022-08-22T20:24:12.684Z,2.42
2022-08-22T20:26:57.609Z,2.80
2022-08-22T20:29:33.590Z,2.20
2022-08-22T20:32:03.236Z,2.97
2022-08-22T20:34:36.595Z,2.65
2022-08-22T20:37:26.986Z,2.72
2022-08-22T20:40:51.964Z,2.42
2022-08-22T20:43:10.587Z,2.80
2022-08-22T20:45:48.483Z,3.13
2022-08-22T20:48:17.731Z,2.50
2022-08-22T20:50:44.478Z,3.17
2022-08-22T20:53:22.238Z,2.80
2022-08-22T20:55:55.696Z,2.90
2022-08-22T20:58:33.058Z,3.00
2022-08-22T21:01:01.919Z,3.10
2022-08-22T21:03:51.636Z,3.03
2022-08-22T21:06:30.903Z,2.78
2022-08-22T21:09:38.677Z,2.92
2022-08-22T21:12:09.304Z,3.00
2022-08-22T21:14:44.215Z,2.67
2022-08-22T21:17:21.894Z,2.72
2022-08-22T21:19:48.770Z,2.80
2022-08-22T21:22:21.082Z,2.55
2022-08-22T21:24:47.863Z,2.85
2022-08-22T21:27:28.880Z,3.05
2022-08-22T21:29:56.473Z,2.95
2022-08-22T21:32:41.757Z,2.95
2022-08-22T21:35:22.238Z,3.33
2022-08-22T21:37:49.100Z,2.97
2022-08-22T21:40:18.865Z,3.08
2022-08-22T21:43:07.896Z,2.88
2022-08-22T21:45:40.581Z,2.95
2022-08-22T21:48:38.250Z,3.05
2022-08-22T21:51:41.076Z,2.70
2022-08-22T21:54:25.970Z,2.78
2022-08-22T21:56:58.993Z,3.92
2022-08-22T21:59:50.595Z,2.95
2022-08-22T22:02:43.724Z,3.20
2022-08-22T22:05:17.675Z,2.97
2022-08-22T22:07:46.704Z,2.90
2022-08-22T22:10:19.177Z,3.10
2022-08-22T22:12:48.365Z,2.95
2022-08-22T22:15:18.215Z,3.20
2022-08-22T22:17:45.061Z,3.58
2022-08-22T22:20:15.673Z,3.58
2022-08-22T22:22:45.886Z,3.35
2022-08-22T22:25:39.883Z,3.67
2022-08-22T22:28:13.660Z,3.17
2022-08-22T22:30:43.476Z,3.33
2022-08-22T22:33:10.405Z,3.40
2022-08-22T22:35:41.237Z,3.22
2022-08-22T22:38:11.347Z,3.30
2022-08-22T22:40:38.318Z,3.05
2022-08-22T22:43:05.171Z,3.00
2022-08-22T22:45:34.340Z,3.13
2022-08-22T22:48:01.262Z,2.80
2022-08-22T22:50:28.520Z,2.90
2022-08-22T22:52:55.270Z,3.05
2022-08-22T22:55:24.569Z,2.90
2022-08-22T22:57:59.944Z,3.20
2022-08-22T23:00:32.283Z,2.90
2022-08-22T23:03:04.101Z,2.80
2022-08-22T23:05:31.978Z,3.08
2022-08-22T23:07:59.427Z,3.10
2022-08-22T23:10:30.525Z,2.75
2022-08-22T23:12:58.123Z,2.65
2022-08-22T23:15:24.958Z,2.80
2022-08-22T23:17:54.083Z,2.95
2022-08-22T23:20:20.854Z,3.08
2022-08-22T23:22:47.929Z,2.60
2022-08-22T23:25:15.162Z,2.72
2022-08-22T23:27:44.530Z,2.88
2022-08-22T23:30:20.432Z,2.63
2022-08-22T23:32:47.513Z,3.10
2022-08-22T23:35:14.277Z,2.80
2022-08-22T23:37:41.012Z,2.60
2022-08-22T23:40:09.360Z,2.67
2022-08-22T23:42:36.289Z,2.83
2022-08-22T23:45:05.958Z,2.42
2022-08-22T23:47:32.690Z,2.35
2022-08-22T23:49:59.465Z,2.50
2022-08-22T23:52:33.265Z,2.65
2022-08-22T23:55:00.067Z,2.72
2022-08-22T23:57:29.530Z,2.72
